Detall de PIREP

Printer-friendly versionPDF version

[2014/05/15 08:41:00]
Flight IATA:CT0001
Pilot Number:041
Company ICAO:CAT
Aircraft Type:BE20/A
PAX:3
Departing Airport: LELC
Destination Airport: LEGE
Alternate Airport:LEBL
Online: VATSIM
Route:ALT B46 MITOS N608 SOPET B28 EBROX DCT LATRO H110 MAMUK
Flight Level:FL130
No Slew and time accel
No pause
Crash detect
Detect pilot in Cockpit between each 30 and 45 minutes
08:41 Zero fuel Weight: 8737 Lbs, Fuel Weight: 3668 Lbs
08:41 VATSIM:LELC 150700Z 05008KT 010V100 9999 SCT027 19/13 Q1025 NOSIG
08:41 VATSIM:LEGE 150700Z 06003KT 010V110 CAVOK 14/09 Q1025 NOSIG
08:41 VOICE CATALONIAN
08:49 Parking Brakes off
08:54 Take-off
08:54 Take off Weight: 12371 Lbs
08:54 Wind: 049º @ 008 Knots Heading: 044º
08:54 POS N37º 46´ 33´´ W000º 48´ 39´´
08:54 Flaps:1 at 135 Knots
08:54 Gear Up: 136 Knots
08:55 Flaps:0 at 146 Knots
09:07 TOC
09:07 Fuel Weight: 3460 Lb
09:09 Wind:042º@012 Knots Heading: 066º Ground Speed: 220 Knots Altitude 13330 ft
09:24 Wind:309º@012 Knots Heading: 357º Ground Speed: 231 Knots Altitude 13320 ft
09:39 Wind:149º@012 Knots Heading: 049º Ground Speed: 235 Knots Altitude 13326 ft
09:54 Wind:292º@012 Knots Heading: 026º Ground Speed: 238 Knots Altitude 13333 ft
10:09 Wind:126º@012 Knots Heading: 017º Ground Speed: 246 Knots Altitude 13087 ft
10:12 TOD
10:12 Fuel Weight: 2742 Lb
10:24 Wind:029º@004 Knots Heading: 026º Ground Speed: 223 Knots Altitude 5360 ft
10:25 Flaps:1 at 178 Knots
10:26 Gear Down: 153 Knots
10:26 Flaps:2 at 149 Knots
10:29 TouchDown:Rate -63 ft/min Speed: 110 Knots
10:29 Flaps:0 at 102 Knots
10:29 VATSIM:LEGE 150900Z 19001KT 9999 FEW025 19/00 Q1024
10:29 Land
10:29 Wind:033º@008 Knots
10:29 Heading: 016º
10:29 Flight Duration: 01:35
10:29 Landing Weight: 11352 Lbs
10:29 POS N41º 54´ 16´´ E002º 45´ 43´´
10:32 Parking brakes on
10:32 Block to Block Duration: 01:43
10:32 Final Fuel: 2605 Lbls
10:32 Spent Fuel: 1062 Lbls
10:32 Flight Length: 355 NM
10:32 TOD Land Length: 58 NM

Exportar CSV

Powered by Drupal - Modified by Danger4k